createdAt,value
2022-12-09T00:00:38.277Z,98889.72
2022-12-09T00:03:26.473Z,98919.25
2022-12-09T00:06:17.934Z,98914.25
2022-12-09T00:09:06.300Z,98913.66
2022-12-09T00:11:55.728Z,98914.56
2022-12-09T00:14:43.838Z,98907.97
2022-12-09T00:17:32.211Z,98910.97
2022-12-09T00:20:20.267Z,98910.53
2022-12-09T00:23:08.256Z,98903.56
2022-12-09T00:25:57.915Z,98903.41
2022-12-09T00:28:47.936Z,98906.66
2022-12-09T00:31:38.448Z,98908.09
2022-12-09T00:34:26.508Z,98908.97
2022-12-09T00:37:14.480Z,98905.41
2022-12-09T00:40:02.435Z,98894.72
2022-12-09T00:42:50.527Z,98895.00
2022-12-09T00:45:39.856Z,98895.69
2022-12-09T00:48:28.341Z,98894.00
2022-12-09T00:51:18.680Z,98889.84
2022-12-09T00:54:06.977Z,98890.66
2022-12-09T00:56:57.101Z,98890.50
2022-12-09T00:59:45.101Z,98896.38
2022-12-09T01:02:34.593Z,98890.28
2022-12-09T01:05:22.610Z,98886.16
2022-12-09T01:08:12.323Z,98888.06
2022-12-09T01:11:00.326Z,98887.75
2022-12-09T01:13:49.397Z,98885.50
2022-12-09T01:16:37.701Z,98885.81
2022-12-09T01:19:27.108Z,98897.44
2022-12-09T01:22:15.055Z,98889.78
2022-12-09T01:25:03.654Z,98896.63
2022-12-09T01:27:51.554Z,98895.06
2022-12-09T01:30:39.616Z,98890.97
2022-12-09T01:33:29.456Z,98896.69
2022-12-09T01:36:21.497Z,98840.31
2022-12-09T01:39:10.986Z,98889.66
2022-12-09T01:41:59.220Z,98885.97
2022-12-09T01:45:20.720Z,98886.28
2022-12-09T01:48:14.404Z,98890.66
2022-12-09T01:51:11.386Z,98891.34
2022-12-09T01:54:00.906Z,98880.69
2022-12-09T01:56:49.022Z,98881.47
2022-12-09T01:59:37.819Z,98876.75
2022-12-09T02:02:28.652Z,98870.88
2022-12-09T02:05:17.444Z,98873.06
2022-12-09T02:08:13.984Z,98872.72
2022-12-09T02:11:15.480Z,98872.38
2022-12-09T02:14:15.271Z,98868.75
2022-12-09T02:17:22.200Z,98862.09
2022-12-09T02:20:19.972Z,98857.97
2022-12-09T02:23:17.061Z,98862.41
2022-12-09T02:26:17.462Z,98865.75
2022-12-09T02:29:34.550Z,98866.19
2022-12-09T02:32:59.346Z,98857.38
2022-12-09T02:35:56.079Z,98851.59
2022-12-09T02:38:45.814Z,98846.84
2022-12-09T02:41:36.752Z,98836.34
2022-12-09T02:44:27.890Z,98839.66
2022-12-09T02:47:19.709Z,98843.66
2022-12-09T02:50:13.218Z,98827.31
2022-12-09T02:53:07.686Z,98828.78
2022-12-09T02:55:57.259Z,98784.72
2022-12-09T02:58:46.383Z,98827.22
2022-12-09T03:01:48.353Z,98818.97
2022-12-09T03:04:42.765Z,98813.13
2022-12-09T03:08:08.081Z,98815.22
2022-12-09T03:11:01.133Z,98806.19
2022-12-09T03:13:56.642Z,98803.50
2022-12-09T03:16:50.894Z,98796.13
2022-12-09T03:19:44.221Z,98751.88
2022-12-09T03:22:35.593Z,98792.59
2022-12-09T03:25:29.194Z,98795.38
2022-12-09T03:28:24.424Z,98785.19
2022-12-09T03:31:17.273Z,98783.72
2022-12-09T03:34:08.637Z,98785.44
2022-12-09T03:36:59.484Z,98778.31
2022-12-09T03:39:48.882Z,98778.69
2022-12-09T03:42:43.792Z,98782.47
2022-12-09T03:45:33.270Z,98762.75
2022-12-09T03:48:22.378Z,98774.59
2022-12-09T03:51:15.396Z,98778.34
2022-12-09T03:54:09.913Z,98776.88
2022-12-09T03:56:59.450Z,98775.78
2022-12-09T03:59:54.066Z,98774.59
2022-12-09T04:02:42.080Z,98773.72
2022-12-09T04:05:30.136Z,98777.09
2022-12-09T04:08:18.234Z,98778.31
2022-12-09T04:11:06.914Z,98768.97
2022-12-09T04:13:54.888Z,98773.16
2022-12-09T04:16:44.644Z,98777.09
2022-12-09T04:19:32.816Z,98776.53
2022-12-09T04:22:21.440Z,98770.69
2022-12-09T04:25:10.449Z,98764.41
2022-12-09T04:27:58.415Z,98771.25
2022-12-09T04:30:46.941Z,98762.81
2022-12-09T04:33:37.015Z,98763.84
2022-12-09T04:36:25.113Z,98761.97
2022-12-09T04:39:13.385Z,98760.06
2022-12-09T04:42:01.350Z,98767.50
2022-12-09T04:44:49.614Z,98761.22
2022-12-09T04:47:37.702Z,98762.66
2022-12-09T04:50:28.010Z,98760.06
2022-12-09T04:53:16.280Z,98753.53
2022-12-09T04:56:07.228Z,98746.22
2022-12-09T04:58:55.196Z,98756.34
2022-12-09T05:01:44.422Z,98758.94
2022-12-09T05:04:32.859Z,98759.72
2022-12-09T05:07:23.419Z,98751.81
2022-12-09T05:10:12.743Z,98746.19
2022-12-09T05:13:01.032Z,98742.13
2022-12-09T05:15:49.243Z,98740.34
2022-12-09T05:18:38.135Z,98736.41
2022-12-09T05:21:26.467Z,98732.00
2022-12-09T05:24:16.111Z,98727.81
2022-12-09T05:27:04.891Z,98726.72
2022-12-09T05:29:53.175Z,98732.25
2022-12-09T05:32:41.512Z,98720.72
2022-12-09T05:35:29.934Z,98722.31
2022-12-09T05:38:18.482Z,98717.38
2022-12-09T05:41:09.466Z,98706.75
2022-12-09T05:43:57.764Z,98712.16
2022-12-09T05:46:46.163Z,98710.94
2022-12-09T05:49:34.710Z,98710.59
2022-12-09T05:52:22.851Z,98710.84
2022-12-09T05:55:11.979Z,98704.72
2022-12-09T05:58:01.527Z,98694.81
2022-12-09T06:00:50.200Z,98706.63
2022-12-09T06:03:38.924Z,98693.25
2022-12-09T06:06:30.088Z,98702.38
2022-12-09T06:09:18.817Z,98701.91
2022-12-09T06:12:07.817Z,98700.44
2022-12-09T06:14:57.270Z,98688.59
2022-12-09T06:17:45.411Z,98692.31
2022-12-09T06:20:33.714Z,98673.81
2022-12-09T06:23:21.927Z,98690.44
2022-12-09T06:26:17.147Z,98693.25
2022-12-09T06:29:05.403Z,98695.91
2022-12-09T06:31:54.931Z,98696.34
2022-12-09T06:34:43.187Z,98697.53
2022-12-09T06:37:32.569Z,98685.41
2022-12-09T06:40:22.096Z,98684.16
2022-12-09T06:43:10.710Z,98655.97
2022-12-09T06:45:58.893Z,98691.34
2022-12-09T06:48:48.958Z,98702.00
2022-12-09T06:51:37.521Z,98687.13
2022-12-09T06:54:25.998Z,98687.66
2022-12-09T06:57:13.940Z,98687.44
2022-12-09T07:00:02.753Z,98690.16
2022-12-09T07:02:51.089Z,98688.81
2022-12-09T07:05:20.609Z,98688.50
2022-12-09T07:07:51.514Z,98687.50
2022-12-09T07:10:20.203Z,98685.94
2022-12-09T07:12:48.377Z,98687.31
2022-12-09T07:15:16.499Z,98691.59
2022-12-09T07:17:44.656Z,98695.88
2022-12-09T07:20:13.379Z,98691.91
2022-12-09T07:22:42.547Z,98696.44
2022-12-09T07:25:11.183Z,98698.81
2022-12-09T07:27:40.386Z,98696.44
2022-12-09T07:30:09.578Z,98690.50
2022-12-09T07:32:37.819Z,98699.88
2022-12-09T07:35:06.448Z,98690.59
2022-12-09T07:37:34.918Z,98692.19
2022-12-09T07:40:04.089Z,98679.91
2022-12-09T07:42:31.891Z,98680.88
2022-12-09T07:45:04.547Z,98680.88
2022-12-09T07:47:32.642Z,98687.13
2022-12-09T07:50:06.239Z,98684.69
2022-12-09T07:52:35.022Z,98689.41
2022-12-09T07:55:04.750Z,98692.56
2022-12-09T07:57:34.752Z,98690.31
2022-12-09T08:00:02.916Z,98693.47
2022-12-09T08:02:39.695Z,98692.91
2022-12-09T08:05:09.062Z,98680.19
2022-12-09T08:07:43.697Z,98674.31
2022-12-09T08:10:13.982Z,98681.88
2022-12-09T08:12:41.886Z,98673.09
2022-12-09T08:15:10.874Z,98675.91
2022-12-09T08:17:39.528Z,98669.25
2022-12-09T08:20:10.486Z,98672.63
2022-12-09T08:22:39.110Z,98671.13
2022-12-09T08:25:08.343Z,98643.78
2022-12-09T08:27:38.113Z,98672.81
2022-12-09T08:30:07.895Z,98670.19
2022-12-09T08:32:36.486Z,98670.03
2022-12-09T08:35:04.860Z,98668.22
2022-12-09T08:37:33.334Z,98675.88
2022-12-09T08:40:01.023Z,98673.19
2022-12-09T08:42:30.702Z,98669.06
2022-12-09T08:45:02.433Z,98667.81
2022-12-09T08:47:31.299Z,98670.31
2022-12-09T08:49:59.372Z,98661.59
2022-12-09T08:52:27.575Z,98654.78
2022-12-09T08:54:55.591Z,98650.81
2022-12-09T08:57:24.372Z,98653.69
2022-12-09T08:59:52.511Z,98538.63
2022-12-09T09:02:22.014Z,98655.28
2022-12-09T09:04:49.933Z,98655.00
2022-12-09T09:07:18.577Z,98654.75
2022-12-09T09:09:46.522Z,98657.91
2022-12-09T09:12:14.778Z,98652.56
2022-12-09T09:14:42.723Z,98647.50
2022-12-09T09:17:10.542Z,98648.91
2022-12-09T09:19:40.077Z,98645.94
2022-12-09T09:22:08.063Z,98625.91
2022-12-09T09:24:35.836Z,98645.31
2022-12-09T09:27:04.158Z,98640.25
2022-12-09T09:29:32.422Z,98647.69
2022-12-09T09:32:00.307Z,98642.16
2022-12-09T09:34:29.186Z,98638.91
2022-12-09T09:36:58.710Z,98643.97
2022-12-09T09:39:26.576Z,98642.13
2022-12-09T09:41:57.185Z,98640.13
2022-12-09T09:44:30.359Z,98631.63
2022-12-09T09:46:59.515Z,98631.28
2022-12-09T09:49:36.767Z,98635.16
2022-12-09T09:52:09.488Z,98622.88
2022-12-09T09:54:37.949Z,98622.41
2022-12-09T09:57:14.261Z,98621.63
2022-12-09T09:59:54.038Z,98617.44
2022-12-09T10:02:36.690Z,98609.28
2022-12-09T10:05:15.741Z,98608.28
2022-12-09T10:07:51.576Z,98608.41
2022-12-09T10:10:30.559Z,98602.25
2022-12-09T10:13:17.608Z,98597.69
2022-12-09T10:15:52.976Z,98602.38
2022-12-09T10:18:26.016Z,98600.22
2022-12-09T10:20:54.753Z,98604.56
2022-12-09T10:23:25.205Z,98601.75
2022-12-09T10:25:57.783Z,98596.28
2022-12-09T10:28:28.459Z,98603.28
2022-12-09T10:30:57.570Z,98601.44
2022-12-09T10:33:33.339Z,98598.66
2022-12-09T10:36:02.154Z,98605.59
2022-12-09T10:38:33.036Z,98604.69
2022-12-09T10:41:07.341Z,98609.50
2022-12-09T10:43:38.665Z,98596.41
2022-12-09T10:46:19.235Z,98541.22
2022-12-09T10:48:55.932Z,98598.13
2022-12-09T10:51:27.219Z,98598.13
2022-12-09T10:54:00.023Z,98592.91
2022-12-09T10:56:30.259Z,98593.69
2022-12-09T10:59:11.620Z,98601.50
2022-12-09T11:01:51.065Z,98595.09
2022-12-09T11:04:24.112Z,98585.91
2022-12-09T11:06:58.781Z,98587.50
2022-12-09T11:09:33.305Z,98586.41
2022-12-09T11:12:03.398Z,98590.75
2022-12-09T11:14:36.079Z,98590.38
2022-12-09T11:17:16.710Z,98585.56
2022-12-09T11:19:48.955Z,98588.91
2022-12-09T11:22:25.002Z,98579.28
2022-12-09T11:24:56.719Z,98542.72
2022-12-09T11:27:28.173Z,98584.88
2022-12-09T11:30:13.160Z,98580.50
2022-12-09T11:33:01.085Z,98578.84
2022-12-09T11:35:40.272Z,98573.44
2022-12-09T11:38:22.360Z,98577.63
2022-12-09T11:41:03.806Z,98577.34
2022-12-09T11:43:39.157Z,98567.09
2022-12-09T11:46:19.046Z,98569.97
2022-12-09T11:48:53.657Z,98566.19
2022-12-09T11:51:23.734Z,98560.06
2022-12-09T11:53:53.392Z,98561.72
2022-12-09T11:56:26.600Z,98563.91
2022-12-09T11:59:00.541Z,98562.22
2022-12-09T12:01:37.140Z,98558.72
2022-12-09T12:04:10.245Z,98553.66
2022-12-09T12:06:45.723Z,98547.84
2022-12-09T12:09:20.375Z,98545.75
2022-12-09T12:11:59.025Z,98550.94
2022-12-09T12:14:30.507Z,98542.91
2022-12-09T12:17:08.556Z,98550.56
2022-12-09T12:19:39.299Z,98553.69
2022-12-09T12:22:25.634Z,98548.06
2022-12-09T12:25:18.513Z,98541.09
2022-12-09T12:28:01.186Z,98538.78
2022-12-09T12:30:38.728Z,98552.50
2022-12-09T12:36:19.241Z,98511.22
2022-12-09T12:39:05.677Z,98545.69
2022-12-09T12:41:41.197Z,98548.16
2022-12-09T12:44:57.491Z,98538.50
2022-12-09T12:47:32.460Z,98543.72
2022-12-09T12:50:25.471Z,98550.06
2022-12-09T12:52:59.353Z,98547.50
2022-12-09T12:55:43.763Z,98548.31
2022-12-09T12:58:18.131Z,98553.06
2022-12-09T13:01:00.433Z,98548.94
2022-12-09T13:03:37.375Z,98547.41
2022-12-09T13:06:05.841Z,98546.94
2022-12-09T13:08:38.086Z,98513.25
2022-12-09T13:11:10.379Z,98540.81
2022-12-09T13:13:43.546Z,98537.38
2022-12-09T13:16:19.869Z,98541.00
2022-12-09T13:18:49.943Z,98535.75
2022-12-09T13:21:18.478Z,98540.50
2022-12-09T13:24:01.442Z,98540.00
2022-12-09T13:26:42.280Z,98538.00
2022-12-09T13:29:21.295Z,98533.34
2022-12-09T13:31:57.907Z,98532.75
2022-12-09T13:34:36.550Z,98530.50
2022-12-09T13:37:04.395Z,98531.34
2022-12-09T13:39:58.779Z,98523.97
2022-12-09T13:42:56.381Z,98525.41
2022-12-09T13:45:33.295Z,98520.28
2022-12-09T13:48:10.638Z,98521.88
2022-12-09T13:50:44.060Z,98440.94
2022-12-09T13:53:26.820Z,98527.81
2022-12-09T13:55:57.558Z,98530.28
2022-12-09T13:58:41.383Z,98530.19
2022-12-09T14:01:19.645Z,98524.06
2022-12-09T14:03:55.481Z,98534.88
2022-12-09T14:06:27.420Z,98533.88
2022-12-09T14:08:59.671Z,98527.03
2022-12-09T14:11:48.434Z,98529.66
2022-12-09T14:14:51.671Z,98536.94
2022-12-09T14:17:59.874Z,98527.94
2022-12-09T14:20:35.247Z,98531.50
2022-12-09T14:23:20.924Z,98524.53
2022-12-09T14:26:04.449Z,98525.66
2022-12-09T14:28:53.489Z,98530.38
2022-12-09T14:31:49.029Z,98535.03
2022-12-09T14:34:28.436Z,98525.69
2022-12-09T14:37:09.615Z,98544.81
2022-12-09T14:39:45.993Z,98543.91
2022-12-09T14:42:26.927Z,98546.69
2022-12-09T14:45:02.685Z,98558.91
2022-12-09T14:47:34.000Z,98554.41
2022-12-09T14:50:09.722Z,98555.63
2022-12-09T14:52:49.672Z,98562.47
2022-12-09T14:55:17.941Z,98558.31
2022-12-09T14:57:48.089Z,98563.00
2022-12-09T15:00:28.633Z,98568.88
2022-12-09T15:03:30.743Z,98568.88
2022-12-09T15:05:55.155Z,98569.22
2022-12-09T15:08:35.465Z,98569.47
2022-12-09T15:11:11.145Z,98565.78
2022-12-09T15:13:41.675Z,98554.38
2022-12-09T15:16:11.363Z,98578.22
2022-12-09T15:18:41.283Z,98576.56
2022-12-09T15:21:09.314Z,98574.53
2022-12-09T15:23:40.040Z,98566.94
2022-12-09T15:26:09.699Z,98578.47
2022-12-09T15:28:38.387Z,98578.03
2022-12-09T15:31:08.261Z,98579.47
2022-12-09T15:33:41.371Z,98583.38
2022-12-09T15:36:12.399Z,98592.78
2022-12-09T15:38:46.318Z,98590.41
2022-12-09T15:41:31.941Z,98523.56
2022-12-09T15:44:04.606Z,98589.94
2022-12-09T15:46:34.869Z,98587.28
2022-12-09T15:49:04.004Z,98588.03
2022-12-09T15:51:37.360Z,98586.25
2022-12-09T15:54:10.890Z,98589.38
2022-12-09T15:56:43.264Z,98594.03
2022-12-09T15:59:19.227Z,98594.75
2022-12-09T16:01:50.017Z,98589.97
2022-12-09T16:04:20.233Z,98594.28
2022-12-09T16:06:50.054Z,98600.41
2022-12-09T16:09:21.391Z,98602.00
2022-12-09T16:11:50.959Z,98604.63
2022-12-09T16:14:20.773Z,98601.56
2022-12-09T16:16:50.818Z,98598.00
2022-12-09T16:19:26.615Z,98605.63
2022-12-09T16:21:56.542Z,98608.44
2022-12-09T16:24:28.235Z,98596.50
2022-12-09T16:27:07.348Z,98595.19
2022-12-09T16:29:36.889Z,98597.41
2022-12-09T16:32:30.281Z,98599.78
2022-12-09T16:35:00.189Z,98597.34
2022-12-09T16:37:37.847Z,98601.50
2022-12-09T16:40:57.330Z,98604.34
2022-12-09T16:43:26.839Z,98598.28
2022-12-09T16:45:55.796Z,98604.81
2022-12-09T16:48:25.763Z,98600.03
2022-12-09T16:50:56.801Z,98597.94
2022-12-09T16:53:27.074Z,98605.47
2022-12-09T16:55:59.615Z,98595.69
2022-12-09T16:58:28.102Z,98598.50
2022-12-09T17:00:56.607Z,98607.06
2022-12-09T17:03:35.587Z,98603.94
2022-12-09T17:06:03.263Z,98612.25
2022-12-09T17:08:32.039Z,98603.44
2022-12-09T17:11:01.237Z,98601.34
2022-12-09T17:13:29.003Z,98600.47
2022-12-09T17:15:58.427Z,98603.44
2022-12-09T17:18:27.210Z,98586.31
2022-12-09T17:21:01.439Z,98609.66
2022-12-09T17:23:30.083Z,98613.41
2022-12-09T17:26:02.666Z,98612.78
2022-12-09T17:28:31.155Z,98610.94
2022-12-09T17:30:59.652Z,98620.66
2022-12-09T17:33:28.259Z,98617.34
2022-12-09T17:35:56.314Z,98483.38
2022-12-09T17:38:24.167Z,98619.78
2022-12-09T17:40:51.840Z,98623.31
2022-12-09T17:43:20.829Z,98629.22
2022-12-09T17:45:48.514Z,98633.78
2022-12-09T17:48:16.172Z,98619.16
2022-12-09T17:50:43.794Z,98638.94
2022-12-09T17:53:11.411Z,98639.72
2022-12-09T17:55:39.837Z,98598.97
2022-12-09T17:58:07.541Z,98641.38
2022-12-09T18:00:38.866Z,98643.00
2022-12-09T18:03:06.530Z,98648.63
2022-12-09T18:05:37.423Z,98641.53
2022-12-09T18:08:05.706Z,98645.63
2022-12-09T18:10:33.962Z,98644.75
2022-12-09T18:13:01.662Z,98642.97
2022-12-09T18:15:29.329Z,98654.59
2022-12-09T18:17:58.647Z,98650.47
2022-12-09T18:20:26.283Z,98652.25
2022-12-09T18:22:53.927Z,98653.47
2022-12-09T18:25:22.102Z,98645.75
2022-12-09T18:27:49.725Z,98647.97
2022-12-09T18:30:17.396Z,98646.25
2022-12-09T18:32:45.075Z,98647.59
2022-12-09T18:35:14.180Z,98647.34
2022-12-09T18:37:41.825Z,98646.28
2022-12-09T18:40:10.896Z,98645.53
2022-12-09T18:42:38.539Z,98654.56
2022-12-09T18:45:06.935Z,98652.75
2022-12-09T18:47:34.554Z,98658.78
2022-12-09T18:50:02.178Z,98661.28
2022-12-09T18:52:31.241Z,98655.63
2022-12-09T18:54:58.875Z,98660.97
2022-12-09T18:57:30.733Z,98660.94
2022-12-09T18:59:58.741Z,98658.94
2022-12-09T19:02:26.623Z,98646.50
2022-12-09T19:04:54.367Z,98657.50
2022-12-09T19:07:22.055Z,98661.72
2022-12-09T19:09:51.060Z,98663.56
2022-12-09T19:15:07.580Z,98669.00
2022-12-09T19:17:35.313Z,98676.50
2022-12-09T19:20:03.055Z,98677.50
2022-12-09T19:22:30.763Z,98672.91
2022-12-09T19:24:59.736Z,98667.91
2022-12-09T19:27:27.787Z,98675.06
2022-12-09T19:29:55.423Z,98673.94
2022-12-09T19:32:51.373Z,98677.31
2022-12-09T19:35:10.749Z,98678.44
2022-12-09T19:37:38.408Z,98677.22
2022-12-09T19:40:09.284Z,98679.28
2022-12-09T19:42:39.645Z,98671.94
2022-12-09T19:45:13.659Z,98677.00
2022-12-09T19:47:41.922Z,98684.63
2022-12-09T19:50:10.245Z,98682.06
2022-12-09T19:52:38.192Z,98683.97
2022-12-09T19:55:08.660Z,98684.84
2022-12-09T19:57:36.377Z,98674.97
2022-12-09T20:00:05.185Z,98680.13
2022-12-09T20:02:33.039Z,98678.63
2022-12-09T20:05:00.708Z,98683.53
2022-12-09T20:07:28.339Z,98684.94
2022-12-09T20:09:56.080Z,98684.94
2022-12-09T20:12:25.037Z,98686.97
2022-12-09T20:14:52.680Z,98691.25
2022-12-09T20:17:20.403Z,98690.03
2022-12-09T20:19:48.194Z,98661.28
2022-12-09T20:22:15.858Z,98694.47
2022-12-09T20:24:44.136Z,98698.25
2022-12-09T20:27:11.895Z,98710.19
2022-12-09T20:29:40.991Z,98663.75
2022-12-09T20:32:09.896Z,98707.81
2022-12-09T20:34:37.730Z,98617.34
2022-12-09T20:37:05.773Z,98704.56
2022-12-09T20:39:33.613Z,98711.41
2022-12-09T20:42:01.323Z,98710.53
2022-12-09T20:44:29.096Z,98718.56
2022-12-09T20:46:58.063Z,98722.38
2022-12-09T20:49:27.533Z,98716.41
2022-12-09T20:51:55.973Z,98720.66
2022-12-09T20:54:23.938Z,98726.28
2022-12-09T20:56:52.930Z,98719.44
2022-12-09T20:59:20.594Z,98729.19
2022-12-09T21:01:48.325Z,98725.78
2022-12-09T21:04:36.292Z,98725.34
2022-12-09T21:07:24.204Z,98722.97
2022-12-09T21:10:12.111Z,98726.91
2022-12-09T21:13:00.143Z,98639.81
2022-12-09T21:15:48.138Z,98738.28
2022-12-09T21:18:36.867Z,98748.78
2022-12-09T21:21:27.875Z,98748.16
2022-12-09T21:24:16.697Z,98745.81
2022-12-09T21:27:04.721Z,98740.91
2022-12-09T21:29:52.616Z,98738.19
2022-12-09T21:32:41.644Z,98738.53
2022-12-09T21:35:29.561Z,98741.25
2022-12-09T21:38:18.834Z,98742.75
2022-12-09T21:41:08.481Z,98736.44
2022-12-09T21:43:57.777Z,98743.97
2022-12-09T21:46:46.062Z,98740.47
2022-12-09T21:49:34.232Z,98740.47
2022-12-09T21:52:22.199Z,98743.91
2022-12-09T21:55:11.731Z,98747.66
2022-12-09T21:57:59.697Z,98743.28
2022-12-09T22:00:47.922Z,98746.09
2022-12-09T22:03:35.929Z,98745.56
2022-12-09T22:06:24.144Z,98741.97
2022-12-09T22:09:12.618Z,98742.66
2022-12-09T22:12:01.951Z,98744.22
2022-12-09T22:14:52.015Z,98745.19
2022-12-09T22:17:40.262Z,98664.38
2022-12-09T22:21:01.142Z,98737.50
2022-12-09T22:23:36.200Z,98740.94
2022-12-09T22:26:26.064Z,98711.25
2022-12-09T22:29:16.936Z,98739.25
2022-12-09T22:32:05.110Z,98749.31
2022-12-09T22:34:54.509Z,98750.03
2022-12-09T22:37:44.062Z,98757.78
2022-12-09T22:40:32.423Z,98756.41
2022-12-09T22:43:20.447Z,98757.09
2022-12-09T22:46:11.772Z,98763.22
2022-12-09T22:49:02.757Z,98760.88
2022-12-09T22:51:50.736Z,98771.28
2022-12-09T22:54:39.115Z,98769.00
2022-12-09T22:57:27.041Z,98769.25
2022-12-09T23:00:15.924Z,98778.59
2022-12-09T23:03:05.419Z,98772.84
2022-12-09T23:05:53.454Z,98763.38
2022-12-09T23:08:43.300Z,98762.00
2022-12-09T23:11:31.546Z,98764.44
2022-12-09T23:14:19.850Z,98769.25
2022-12-09T23:17:07.794Z,98766.47
2022-12-09T23:19:57.484Z,98767.31
2022-12-09T23:22:45.719Z,98768.81
2022-12-09T23:25:34.234Z,98763.03
2022-12-09T23:28:22.193Z,98772.34
2022-12-09T23:31:13.389Z,98756.75
2022-12-09T23:34:02.400Z,98763.22
2022-12-09T23:36:52.143Z,98769.09
2022-12-09T23:39:40.324Z,98764.09
2022-12-09T23:42:28.277Z,98766.09
2022-12-09T23:45:16.217Z,98773.78
2022-12-09T23:48:04.213Z,98776.88
2022-12-09T23:50:52.151Z,98777.75
2022-12-09T23:53:42.266Z,98771.78
2022-12-09T23:56:32.293Z,98774.22
2022-12-09T23:59:22.613Z,98772.13
